createdAt,value
2018-12-17T00:00:28.403Z,81.87
2018-12-17T00:02:59.959Z,77.40
2018-12-17T00:05:31.250Z,88.30
2018-12-17T00:08:02.536Z,85.63
2018-12-17T00:10:34.378Z,84.33
2018-12-17T00:13:04.206Z,82.67
2018-12-17T00:15:33.758Z,75.07
2018-12-17T00:18:03.287Z,78.43
2018-12-17T00:20:32.795Z,83.43
2018-12-17T00:23:02.282Z,85.87
2018-12-17T00:25:31.771Z,76.33
2018-12-17T00:28:07.980Z,72.90
2018-12-17T00:30:32.771Z,84.13
2018-12-17T00:33:02.274Z,89.37
2018-12-17T00:35:31.766Z,85.30
2018-12-17T00:38:01.267Z,88.20
2018-12-17T00:40:31.550Z,84.83
2018-12-17T00:43:01.078Z,75.30
2018-12-17T00:45:30.574Z,74.93
2018-12-17T00:48:00.083Z,75.97
2018-12-17T00:50:29.598Z,76.90
2018-12-17T00:52:59.099Z,75.73
2018-12-17T00:55:28.599Z,79.87
2018-12-17T00:57:58.094Z,77.00
2018-12-17T01:00:27.610Z,74.23
2018-12-17T01:02:57.170Z,75.90
2018-12-17T01:05:26.675Z,77.30
2018-12-17T01:07:56.181Z,76.93
2018-12-17T01:10:25.715Z,96.73
2018-12-17T01:12:55.214Z,69.57
2018-12-17T01:15:24.722Z,83.67
2018-12-17T01:17:54.262Z,77.60
2018-12-17T01:20:24.218Z,69.60
2018-12-17T01:22:54.098Z,85.63
2018-12-17T01:25:23.602Z,79.50
2018-12-17T01:27:53.106Z,84.50
2018-12-17T01:30:22.632Z,68.73
2018-12-17T01:32:52.130Z,73.87
2018-12-17T01:35:21.625Z,77.30
2018-12-17T01:37:51.131Z,81.40
2018-12-17T01:40:20.627Z,81.53
2018-12-17T01:42:50.127Z,76.97
2018-12-17T01:45:19.626Z,72.27
2018-12-17T01:47:49.126Z,79.73
2018-12-17T01:50:18.635Z,76.50
2018-12-17T01:52:48.199Z,76.80
2018-12-17T01:55:17.702Z,76.20
2018-12-17T01:57:47.240Z,77.67
2018-12-17T02:00:16.402Z,77.03
2018-12-17T02:02:45.806Z,80.70
2018-12-17T02:05:15.338Z,79.03
2018-12-17T02:07:44.841Z,85.60
2018-12-17T02:10:14.371Z,80.67
2018-12-17T02:12:45.430Z,68.83
2018-12-17T02:15:16.338Z,80.10
2018-12-17T02:17:46.222Z,73.70
2018-12-17T02:20:15.743Z,80.23
2018-12-17T02:22:45.241Z,72.90
2018-12-17T02:25:14.751Z,83.97
2018-12-17T02:27:43.914Z,84.33
2018-12-17T02:30:13.324Z,85.33
2018-12-17T02:32:42.823Z,75.97
2018-12-17T02:35:12.316Z,77.60
2018-12-17T02:37:41.804Z,85.23
2018-12-17T02:40:11.314Z,79.20
2018-12-17T02:42:40.820Z,77.93
2018-12-17T02:45:10.783Z,80.23
2018-12-17T02:47:40.310Z,78.53
2018-12-17T02:50:10.270Z,82.90
2018-12-17T02:52:39.774Z,91.47
2018-12-17T02:55:09.304Z,77.80
2018-12-17T02:57:38.810Z,79.17
2018-12-17T03:00:09.951Z,79.87
2018-12-17T03:02:41.203Z,80.63
2018-12-17T03:05:11.228Z,76.53
2018-12-17T03:07:40.734Z,75.97
2018-12-17T03:10:11.222Z,77.03
2018-12-17T03:12:40.718Z,80.83
2018-12-17T03:15:10.267Z,81.53
2018-12-17T03:17:39.782Z,77.23
2018-12-17T03:20:09.296Z,80.03
2018-12-17T03:22:38.819Z,75.03
2018-12-17T03:25:08.605Z,70.30
2018-12-17T03:27:38.119Z,74.27
2018-12-17T03:30:08.944Z,76.57
2018-12-17T03:32:38.470Z,75.53
2018-12-17T03:35:07.998Z,67.27
2018-12-17T03:37:37.154Z,79.30
2018-12-17T03:40:08.382Z,79.40
2018-12-17T03:42:37.522Z,77.33
2018-12-17T03:45:07.533Z,71.80
2018-12-17T03:47:37.063Z,73.13
2018-12-17T03:50:09.231Z,65.33
2018-12-17T03:52:38.735Z,70.50
2018-12-17T03:55:08.254Z,69.60
2018-12-17T03:57:37.434Z,72.37
2018-12-17T04:00:08.162Z,77.27
2018-12-17T04:02:37.354Z,76.93
2018-12-17T04:05:07.427Z,77.43
2018-12-17T04:07:36.986Z,82.67
2018-12-17T04:10:06.547Z,80.97
2018-12-17T04:12:36.046Z,80.57
2018-12-17T04:15:06.122Z,83.57
2018-12-17T04:17:35.654Z,65.30
2018-12-17T04:20:05.199Z,70.90
2018-12-17T04:22:34.714Z,72.17
2018-12-17T04:25:04.566Z,77.20
2018-12-17T04:27:34.099Z,76.17
2018-12-17T04:30:04.674Z,75.17
2018-12-17T04:32:49.762Z,72.97
2018-12-17T04:35:19.248Z,77.33
2018-12-17T04:37:48.774Z,77.57
2018-12-17T04:40:18.279Z,77.33
2018-12-17T04:42:47.771Z,78.90
2018-12-17T04:45:17.299Z,80.57
2018-12-17T04:47:46.796Z,79.47
2018-12-17T04:50:16.299Z,72.57
2018-12-17T04:52:45.802Z,72.33
2018-12-17T04:55:15.331Z,77.07
2018-12-17T04:57:44.858Z,66.57
2018-12-17T05:00:14.389Z,72.03
2018-12-17T05:02:43.919Z,66.60
2018-12-17T05:05:13.435Z,72.87
2018-12-17T05:07:42.945Z,74.10
2018-12-17T05:10:12.474Z,83.13
2018-12-17T05:12:41.983Z,74.23
2018-12-17T05:15:11.485Z,77.20
2018-12-17T05:17:41.000Z,72.23
2018-12-17T05:20:10.534Z,73.30
2018-12-17T05:22:40.035Z,75.97
2018-12-17T05:25:10.059Z,70.73
2018-12-17T05:27:39.553Z,69.53
2018-12-17T05:30:09.119Z,66.93
2018-12-17T05:32:38.285Z,76.13
2018-12-17T05:35:08.191Z,70.10
2018-12-17T05:37:37.697Z,77.93
2018-12-17T05:40:08.154Z,80.53
2018-12-17T05:42:38.183Z,79.93
2018-12-17T05:45:08.210Z,84.50
2018-12-17T05:47:37.702Z,76.87
2018-12-17T05:50:07.719Z,78.53
2018-12-17T05:52:37.227Z,71.27
2018-12-17T05:55:07.253Z,74.47
2018-12-17T05:57:36.779Z,66.53
2018-12-17T06:00:07.750Z,78.77
2018-12-17T06:02:37.630Z,78.43
2018-12-17T06:05:08.087Z,79.83
2018-12-17T06:07:37.628Z,74.27
2018-12-17T06:10:07.609Z,75.17
2018-12-17T06:12:37.157Z,86.03
2018-12-17T06:15:07.131Z,75.57
2018-12-17T06:17:36.638Z,78.90
2018-12-17T06:20:06.775Z,82.77
2018-12-17T06:22:36.280Z,75.17
2018-12-17T06:25:06.276Z,67.37
2018-12-17T06:27:37.051Z,72.80
2018-12-17T06:30:07.311Z,70.60
2018-12-17T06:32:36.814Z,78.17
2018-12-17T06:35:06.918Z,72.30
2018-12-17T06:37:36.411Z,74.30
2018-12-17T06:40:10.173Z,87.93
2018-12-17T06:42:37.503Z,80.40
2018-12-17T06:45:08.094Z,79.10
2018-12-17T06:47:37.594Z,80.70
2018-12-17T06:50:07.957Z,69.63
2018-12-17T06:52:37.842Z,74.30
2018-12-17T06:55:07.843Z,78.37
2018-12-17T06:57:37.343Z,68.53
2018-12-17T07:00:07.570Z,75.63
2018-12-17T07:02:37.099Z,80.83
2018-12-17T07:05:07.582Z,77.87
2018-12-17T07:07:37.083Z,83.90
2018-12-17T07:10:07.614Z,76.33
2018-12-17T07:12:37.143Z,73.27
2018-12-17T07:15:07.774Z,71.90
2018-12-17T07:17:37.326Z,68.43
2018-12-17T07:20:07.424Z,74.17
2018-12-17T07:22:36.971Z,79.70
2018-12-17T07:25:06.992Z,76.57
2018-12-17T07:27:36.494Z,72.70
2018-12-17T07:30:07.022Z,69.63
2018-12-17T07:32:36.550Z,72.07
2018-12-17T07:35:06.575Z,64.50
2018-12-17T07:37:36.078Z,76.37
2018-12-17T07:40:06.471Z,64.37
2018-12-17T07:42:35.971Z,66.50
2018-12-17T07:45:06.600Z,72.30
2018-12-17T07:47:36.098Z,72.87
2018-12-17T07:50:07.242Z,69.03
2018-12-17T07:52:37.807Z,72.17
2018-12-17T07:55:08.256Z,74.63
2018-12-17T07:57:37.765Z,74.00
2018-12-17T08:00:08.354Z,70.77
2018-12-17T08:02:37.902Z,76.87
2018-12-17T08:05:07.886Z,78.87
2018-12-17T08:07:37.415Z,109.70
2018-12-17T08:10:07.102Z,84.67
2018-12-17T08:12:36.499Z,80.63
2018-12-17T08:15:06.721Z,71.43
2018-12-17T08:17:36.575Z,65.30
2018-12-17T08:20:06.600Z,70.23
2018-12-17T08:22:36.480Z,67.00
2018-12-17T08:25:06.828Z,74.00
2018-12-17T08:27:36.314Z,73.03
2018-12-17T08:30:07.934Z,83.90
2018-12-17T08:32:37.430Z,89.83
2018-12-17T08:35:07.639Z,75.63
2018-12-17T08:37:36.769Z,72.47
2018-12-17T08:40:06.682Z,70.03
2018-12-17T08:42:36.181Z,72.93
2018-12-17T08:45:05.763Z,72.10
2018-12-17T08:47:35.281Z,76.27
2018-12-17T08:50:05.871Z,78.00
2018-12-17T08:52:35.382Z,70.70
2018-12-17T08:55:05.839Z,70.87
2018-12-17T08:57:38.059Z,61.13
2018-12-17T09:00:10.979Z,67.00
2018-12-17T09:02:40.533Z,64.50
2018-12-17T09:05:10.075Z,68.63
2018-12-17T09:07:39.603Z,62.83
2018-12-17T09:10:09.581Z,69.50
2018-12-17T09:12:39.074Z,70.20
2018-12-17T09:15:09.499Z,64.73
2018-12-17T09:17:39.018Z,71.60
2018-12-17T09:20:09.321Z,67.37
2018-12-17T09:22:39.815Z,75.20
2018-12-17T09:25:09.790Z,69.60
2018-12-17T09:27:39.295Z,61.63
2018-12-17T09:30:10.079Z,67.50
2018-12-17T09:32:39.603Z,76.43
2018-12-17T09:35:09.137Z,71.33
2018-12-17T09:37:39.032Z,75.73
2018-12-17T09:40:09.678Z,67.17
2018-12-17T09:42:39.187Z,75.03
2018-12-17T09:45:09.648Z,67.57
2018-12-17T09:47:39.150Z,64.17
2018-12-17T09:50:08.690Z,60.30
2018-12-17T09:52:38.221Z,58.73
2018-12-17T09:55:08.859Z,58.63
2018-12-17T09:57:39.455Z,68.50
2018-12-17T10:00:09.992Z,61.83
2018-12-17T10:02:39.548Z,68.87
2018-12-17T10:05:09.034Z,60.43
2018-12-17T10:07:38.526Z,58.03
2018-12-17T10:10:09.096Z,66.60
2018-12-17T10:12:38.618Z,70.27
2018-12-17T10:15:08.159Z,78.87
2018-12-17T10:17:37.699Z,70.93
2018-12-17T10:20:08.080Z,72.00
2018-12-17T10:22:37.214Z,74.70
2018-12-17T10:25:07.598Z,73.77
2018-12-17T10:27:37.192Z,84.43
2018-12-17T10:30:07.935Z,83.90
2018-12-17T10:32:37.476Z,87.77
2018-12-17T10:35:07.255Z,85.00
2018-12-17T10:37:36.791Z,76.10
2018-12-17T10:40:07.286Z,86.33
2018-12-17T10:42:36.802Z,74.93
2018-12-17T10:45:07.767Z,78.80
2018-12-17T10:47:37.320Z,77.67
2018-12-17T10:50:08.655Z,75.70
2018-12-17T10:52:38.227Z,68.97
2018-12-17T10:55:07.767Z,65.03
2018-12-17T10:57:37.258Z,70.03
2018-12-17T11:00:12.819Z,69.93
2018-12-17T11:02:42.328Z,59.73
2018-12-17T11:05:14.170Z,54.33
2018-12-17T11:07:43.326Z,52.43
2018-12-17T11:10:12.766Z,57.53
2018-12-17T11:12:43.007Z,60.30
2018-12-17T11:15:12.458Z,54.27
2018-12-17T11:17:41.962Z,52.40
2018-12-17T11:20:11.959Z,55.20
2018-12-17T11:22:41.615Z,59.33
2018-12-17T11:25:11.383Z,58.33
2018-12-17T11:27:40.874Z,55.63
2018-12-17T11:30:12.917Z,47.37
2018-12-17T11:32:44.742Z,54.77
2018-12-17T11:35:14.290Z,53.83
2018-12-17T11:37:43.429Z,53.17
2018-12-17T11:40:12.878Z,50.07
2018-12-17T11:42:42.979Z,53.03
2018-12-17T11:45:12.946Z,48.50
2018-12-17T11:47:42.458Z,59.67
2018-12-17T11:50:12.003Z,61.33
2018-12-17T11:52:41.530Z,55.17
2018-12-17T11:55:11.040Z,56.80
2018-12-17T11:57:57.211Z,57.90
2018-12-17T12:00:29.690Z,58.43
2018-12-17T12:02:59.404Z,80.10
2018-12-17T12:05:29.215Z,65.93
2018-12-17T12:07:58.718Z,75.17
2018-12-17T12:10:28.218Z,70.83
2018-12-17T12:12:57.377Z,70.13
2018-12-17T12:15:26.790Z,69.10
2018-12-17T12:17:56.275Z,78.70
2018-12-17T12:20:25.842Z,73.70
2018-12-17T12:22:55.331Z,76.60
2018-12-17T12:25:24.840Z,78.27
2018-12-17T12:27:54.357Z,68.50
2018-12-17T12:30:23.869Z,78.37
2018-12-17T12:32:54.494Z,81.83
2018-12-17T12:35:24.083Z,71.77
2018-12-17T12:37:53.614Z,68.57
2018-12-17T12:40:23.118Z,70.37
2018-12-17T12:42:52.642Z,68.10
2018-12-17T12:45:22.138Z,66.03
2018-12-17T12:47:51.679Z,69.40
2018-12-17T12:50:22.314Z,72.37
2018-12-17T12:52:51.806Z,65.33
2018-12-17T12:55:21.319Z,67.80
2018-12-17T12:57:50.814Z,64.90
2018-12-17T13:00:21.463Z,75.60
2018-12-17T13:02:50.959Z,72.37
2018-12-17T13:05:20.463Z,72.20
2018-12-17T13:07:51.083Z,71.80
2018-12-17T13:10:20.591Z,71.40
2018-12-17T13:12:49.747Z,67.13
2018-12-17T13:15:19.322Z,74.00
2018-12-17T13:17:48.830Z,78.60
2018-12-17T13:20:18.327Z,76.37
2018-12-17T13:22:47.838Z,78.57
2018-12-17T13:25:23.615Z,74.93
2018-12-17T13:27:53.115Z,75.57
2018-12-17T13:30:22.654Z,74.87
2018-12-17T13:32:52.158Z,71.93
2018-12-17T13:35:22.752Z,79.37
2018-12-17T13:37:51.884Z,72.50
2018-12-17T13:40:21.319Z,68.03
2018-12-17T13:42:50.806Z,65.67
2018-12-17T13:45:20.306Z,74.77
2018-12-17T13:47:49.795Z,74.83
2018-12-17T13:50:30.023Z,72.73
2018-12-17T13:53:00.159Z,71.00
2018-12-17T13:55:29.683Z,86.97
2018-12-17T13:57:59.210Z,74.70
2018-12-17T14:00:28.719Z,77.27
2018-12-17T14:02:58.250Z,83.50
2018-12-17T14:05:27.807Z,79.23
2018-12-17T14:07:57.313Z,99.53
2018-12-17T14:10:32.083Z,103.33
2018-12-17T14:13:01.567Z,109.07
2018-12-17T14:15:36.471Z,104.03
2018-12-17T14:18:10.175Z,87.63
2018-12-17T14:20:44.994Z,80.13
2018-12-17T14:23:14.521Z,88.17
2018-12-17T14:25:44.010Z,99.47
2018-12-17T14:28:13.510Z,96.07
2018-12-17T14:30:43.014Z,97.87
2018-12-17T14:33:12.514Z,81.80
2018-12-17T14:35:46.202Z,77.63
2018-12-17T14:38:15.699Z,85.27
2018-12-17T14:40:45.222Z,159.47
2018-12-17T14:43:14.740Z,103.97
2018-12-17T14:45:44.244Z,98.40
2018-12-17T14:48:13.747Z,83.27
2018-12-17T14:50:43.244Z,81.93
2018-12-17T14:53:12.811Z,95.73
2018-12-17T14:55:41.982Z,102.23
2018-12-17T14:58:11.390Z,96.70
2018-12-17T15:00:40.947Z,97.83
2018-12-17T15:03:10.446Z,87.10
2018-12-17T15:05:39.953Z,87.27
2018-12-17T15:08:09.474Z,101.83
2018-12-17T15:10:39.028Z,93.87
2018-12-17T15:13:08.538Z,110.70
2018-12-17T15:15:37.679Z,89.53
2018-12-17T15:18:07.096Z,92.47
2018-12-17T15:20:36.602Z,96.10
2018-12-17T15:23:06.102Z,102.93
2018-12-17T15:25:35.660Z,100.53
2018-12-17T15:28:05.433Z,106.10
2018-12-17T15:30:34.933Z,98.30
2018-12-17T15:33:04.447Z,91.97
2018-12-17T15:35:33.979Z,89.40
2018-12-17T15:38:03.505Z,101.17
2018-12-17T15:40:33.019Z,96.13
2018-12-17T15:43:02.816Z,96.07
2018-12-17T15:45:32.195Z,90.67
2018-12-17T15:48:01.742Z,89.73
2018-12-17T15:50:31.242Z,88.50
2018-12-17T15:53:00.811Z,91.23
2018-12-17T15:55:30.294Z,103.63
2018-12-17T15:57:59.824Z,106.27
2018-12-17T16:00:29.322Z,128.73
2018-12-17T16:02:58.810Z,118.47
2018-12-17T16:05:29.850Z,98.63
2018-12-17T16:07:59.365Z,106.37
2018-12-17T16:10:28.866Z,92.57
2018-12-17T16:12:58.370Z,86.73
2018-12-17T16:15:27.895Z,88.23
2018-12-17T16:17:57.106Z,90.83
2018-12-17T16:20:26.582Z,117.30
2018-12-17T16:22:56.383Z,98.23
2018-12-17T16:25:25.911Z,129.00
2018-12-17T16:27:55.047Z,146.97
2018-12-17T16:30:24.513Z,103.13
2018-12-17T16:32:53.693Z,98.07
2018-12-17T16:35:23.114Z,129.23
2018-12-17T16:37:52.655Z,139.00
2018-12-17T16:40:22.667Z,125.63
2018-12-17T16:42:52.211Z,118.23
2018-12-17T16:45:21.370Z,134.30
2018-12-17T16:47:50.793Z,139.97
2018-12-17T16:50:20.787Z,145.87
2018-12-17T16:52:50.294Z,149.23
2018-12-17T16:55:19.811Z,126.07
2018-12-17T16:57:49.315Z,128.37
2018-12-17T17:00:19.114Z,117.87
2018-12-17T17:02:48.251Z,123.83
2018-12-17T17:05:17.664Z,117.33
2018-12-17T17:07:47.211Z,133.90
2018-12-17T17:10:16.762Z,114.03
2018-12-17T17:12:46.286Z,119.93
2018-12-17T17:15:16.631Z,113.20
2018-12-17T17:17:46.046Z,106.40
2018-12-17T17:20:15.575Z,108.80
2018-12-17T17:22:45.122Z,115.17
2018-12-17T17:25:15.762Z,111.50
2018-12-17T17:27:45.332Z,111.50
2018-12-17T17:30:15.242Z,114.40
2018-12-17T17:32:44.764Z,104.07
2018-12-17T17:35:14.303Z,108.67
2018-12-17T17:37:45.164Z,126.03
2018-12-17T17:40:14.725Z,142.90
2018-12-17T17:42:44.208Z,154.67
2018-12-17T17:45:14.640Z,132.40
2018-12-17T17:47:48.174Z,170.03
2018-12-17T17:50:17.850Z,177.77
2018-12-17T17:52:47.262Z,136.70
2018-12-17T17:55:16.566Z,139.00
2018-12-17T17:57:45.982Z,127.37
2018-12-17T18:00:15.507Z,116.40
2018-12-17T18:02:49.563Z,103.40
2018-12-17T18:05:19.958Z,100.03
2018-12-17T18:07:49.151Z,95.40
2018-12-17T18:10:18.569Z,109.93
2018-12-17T18:12:48.082Z,106.67
2018-12-17T18:15:18.110Z,116.97
2018-12-17T18:17:47.595Z,93.60
2018-12-17T18:20:17.115Z,106.77
2018-12-17T18:22:46.694Z,109.40
2018-12-17T18:25:16.190Z,113.10
2018-12-17T18:27:45.691Z,131.33
2018-12-17T18:30:15.263Z,121.47
2018-12-17T18:32:45.974Z,132.97
2018-12-17T18:35:15.483Z,128.00
2018-12-17T18:37:45.010Z,131.17
2018-12-17T18:40:15.006Z,130.23
2018-12-17T18:42:44.510Z,167.43
2018-12-17T18:45:14.082Z,145.70
2018-12-17T18:47:43.632Z,149.93
2018-12-17T18:50:13.150Z,180.47
2018-12-17T18:52:42.655Z,132.80
2018-12-17T18:55:12.224Z,105.67
2018-12-17T18:57:41.759Z,101.23
2018-12-17T19:00:12.079Z,99.43
2018-12-17T19:02:41.586Z,109.60
2018-12-17T19:05:11.096Z,109.50
2018-12-17T19:07:40.587Z,99.70
2018-12-17T19:10:10.550Z,100.70
2018-12-17T19:12:40.052Z,111.27
2018-12-17T19:15:09.579Z,146.13
2018-12-17T19:17:43.159Z,145.13
2018-12-17T19:20:12.799Z,160.73
2018-12-17T19:22:42.298Z,144.50
2018-12-17T19:25:11.850Z,131.37
2018-12-17T19:27:41.359Z,107.10
2018-12-17T19:30:11.047Z,104.50
2018-12-17T19:32:40.616Z,97.17
2018-12-17T19:35:10.353Z,99.77
2018-12-17T19:37:39.526Z,107.87
2018-12-17T19:40:09.061Z,111.60
2018-12-17T19:42:38.126Z,118.57
2018-12-17T19:45:08.503Z,124.77
2018-12-17T19:47:38.118Z,131.23
2018-12-17T19:50:10.210Z,127.37
2018-12-17T19:52:39.430Z,131.57
2018-12-17T19:55:09.386Z,137.77
2018-12-17T19:57:38.811Z,129.53
2018-12-17T20:00:10.752Z,149.37
2018-12-17T20:02:46.862Z,140.70
2018-12-17T20:05:11.875Z,154.70
2018-12-17T20:07:41.410Z,190.17
2018-12-17T20:10:16.067Z,188.00
2018-12-17T20:12:45.498Z,175.27
2018-12-17T20:15:15.187Z,141.07
2018-12-17T20:17:44.416Z,124.60
2018-12-17T20:20:13.839Z,152.30
2018-12-17T20:22:43.430Z,237.13
2018-12-17T20:25:13.006Z,233.40
2018-12-17T20:27:42.539Z,136.07
2018-12-17T20:30:12.606Z,161.53
2018-12-17T20:32:42.142Z,224.33
2018-12-17T20:35:12.003Z,280.20
2018-12-17T20:37:41.587Z,261.40
2018-12-17T20:40:11.202Z,223.23
2018-12-17T20:42:41.675Z,221.10
2018-12-17T20:45:10.830Z,218.87
2018-12-17T20:47:40.273Z,203.87
2018-12-17T20:50:10.330Z,186.53
2018-12-17T20:52:41.739Z,193.63
2018-12-17T20:55:10.890Z,201.17
2018-12-17T20:57:39.982Z,193.90
2018-12-17T21:00:09.903Z,193.57
2018-12-17T21:02:39.428Z,199.80
2018-12-17T21:05:08.954Z,184.50
2018-12-17T21:07:38.511Z,174.33
2018-12-17T21:10:09.102Z,181.73
2018-12-17T21:12:39.763Z,193.50
2018-12-17T21:15:09.607Z,192.50
2018-12-17T21:17:38.762Z,182.90
2018-12-17T21:20:09.138Z,197.83
2018-12-17T21:22:38.680Z,228.53
2018-12-17T21:25:08.197Z,415.77
2018-12-17T21:27:38.846Z,432.57
2018-12-17T21:30:10.347Z,375.13
2018-12-17T21:32:40.911Z,247.37
2018-12-17T21:35:10.901Z,269.43
2018-12-17T21:37:40.435Z,219.37
2018-12-17T21:40:09.980Z,252.43
2018-12-17T21:42:39.526Z,208.03
2018-12-17T21:45:09.527Z,203.70
2018-12-17T21:47:40.055Z,177.47
2018-12-17T21:50:09.603Z,203.00
2018-12-17T21:52:39.171Z,168.70
2018-12-17T21:55:09.186Z,169.93
2018-12-17T21:57:38.802Z,201.13
2018-12-17T22:00:09.355Z,227.40
2018-12-17T22:02:41.019Z,198.53
2018-12-17T22:05:10.567Z,198.77
2018-12-17T22:07:40.075Z,199.07
2018-12-17T22:10:12.014Z,197.60
2018-12-17T22:12:41.596Z,182.30
2018-12-17T22:15:11.359Z,214.70
2018-12-17T22:17:41.694Z,209.80
2018-12-17T22:20:11.650Z,204.30
2018-12-17T22:22:42.574Z,176.37
2018-12-17T22:25:12.306Z,147.30
2018-12-17T22:27:41.561Z,132.63
2018-12-17T22:30:11.920Z,151.47
2018-12-17T22:32:41.498Z,139.43
2018-12-17T22:35:11.014Z,151.53
2018-12-17T22:37:40.539Z,155.37
2018-12-17T22:40:11.005Z,161.30
2018-12-17T22:42:40.610Z,149.10
2018-12-17T22:45:10.362Z,170.67
2018-12-17T22:47:40.507Z,192.93
2018-12-17T22:50:09.690Z,204.43
2018-12-17T22:52:39.160Z,186.80
2018-12-17T22:55:09.600Z,191.80
2018-12-17T22:57:38.737Z,204.83
2018-12-17T23:00:08.794Z,191.10
2018-12-17T23:02:38.942Z,196.93
2018-12-17T23:05:09.418Z,225.87
2018-12-17T23:07:38.925Z,208.53
2018-12-17T23:10:19.676Z,204.27
2018-12-17T23:13:00.379Z,193.63
2018-12-17T23:15:41.197Z,177.63
2018-12-17T23:18:09.690Z,183.50
2018-12-17T23:20:43.674Z,174.60
2018-12-17T23:23:14.971Z,165.50
2018-12-17T23:25:44.507Z,176.37
2018-12-17T23:28:14.071Z,176.10
2018-12-17T23:30:44.051Z,177.17
2018-12-17T23:33:14.287Z,221.67
2018-12-17T23:35:44.370Z,294.97
2018-12-17T23:38:13.950Z,183.03
2018-12-17T23:40:43.516Z,153.97
2018-12-17T23:43:13.060Z,155.60
2018-12-17T23:45:43.594Z,150.73
2018-12-17T23:48:13.163Z,136.93
2018-12-17T23:50:44.073Z,151.43
2018-12-17T23:53:13.570Z,147.43
2018-12-17T23:55:43.083Z,212.00
2018-12-17T23:58:12.887Z,175.40
